sensor_id;sensor_type;location;lat;lon;timestamp;P1;durP1;ratioP1;P2;durP2;ratioP2
78484;SDS011;67773;50.806;8.776;2023-04-19T00:00:32;10.83;;;7.40;;
78484;SDS011;67773;50.806;8.776;2023-04-19T00:02:58;12.23;;;6.80;;
78484;SDS011;67773;50.806;8.776;2023-04-19T00:05:24;12.10;;;7.13;;
78484;SDS011;67773;50.806;8.776;2023-04-19T00:07:50;12.05;;;7.22;;
78484;SDS011;67773;50.806;8.776;2023-04-19T00:10:15;10.07;;;6.38;;
78484;SDS011;67773;50.806;8.776;2023-04-19T00:12:41;10.10;;;7.00;;
78484;SDS011;67773;50.806;8.776;2023-04-19T00:15:06;10.68;;;7.10;;
78484;SDS011;67773;50.806;8.776;2023-04-19T00:17:32;13.63;;;7.82;;
78484;SDS011;67773;50.806;8.776;2023-04-19T00:19:58;12.30;;;8.05;;
78484;SDS011;67773;50.806;8.776;2023-04-19T00:22:23;11.23;;;7.22;;
78484;SDS011;67773;50.806;8.776;2023-04-19T00:24:49;12.85;;;8.23;;
78484;SDS011;67773;50.806;8.776;2023-04-19T00:27:14;13.52;;;8.18;;
78484;SDS011;67773;50.806;8.776;2023-04-19T00:29:40;11.70;;;7.03;;
78484;SDS011;67773;50.806;8.776;2023-04-19T00:32:05;12.73;;;7.67;;
78484;SDS011;67773;50.806;8.776;2023-04-19T00:34:30;13.00;;;7.85;;
78484;SDS011;67773;50.806;8.776;2023-04-19T00:36:56;12.60;;;7.95;;
78484;SDS011;67773;50.806;8.776;2023-04-19T00:39:22;13.13;;;8.25;;
78484;SDS011;67773;50.806;8.776;2023-04-19T00:41:47;13.38;;;8.60;;
78484;SDS011;67773;50.806;8.776;2023-04-19T00:44:13;12.47;;;8.20;;
78484;SDS011;67773;50.806;8.776;2023-04-19T00:46:38;12.55;;;8.35;;
78484;SDS011;67773;50.806;8.776;2023-04-19T00:49:04;12.65;;;8.20;;
78484;SDS011;67773;50.806;8.776;2023-04-19T00:51:30;13.07;;;8.05;;
78484;SDS011;67773;50.806;8.776;2023-04-19T00:53:56;12.45;;;8.38;;
78484;SDS011;67773;50.806;8.776;2023-04-19T00:56:21;14.55;;;8.82;;
78484;SDS011;67773;50.806;8.776;2023-04-19T00:58:50;12.93;;;8.40;;
78484;SDS011;67773;50.806;8.776;2023-04-19T01:01:17;14.90;;;7.90;;
78484;SDS011;67773;50.806;8.776;2023-04-19T01:03:43;13.37;;;8.77;;
78484;SDS011;67773;50.806;8.776;2023-04-19T01:06:08;13.57;;;8.20;;
78484;SDS011;67773;50.806;8.776;2023-04-19T01:08:33;15.57;;;7.93;;
78484;SDS011;67773;50.806;8.776;2023-04-19T01:10:59;15.40;;;9.87;;
78484;SDS011;67773;50.806;8.776;2023-04-19T01:13:24;16.15;;;9.38;;
78484;SDS011;67773;50.806;8.776;2023-04-19T01:15:51;19.92;;;9.95;;
78484;SDS011;67773;50.806;8.776;2023-04-19T01:18:17;14.15;;;9.30;;
78484;SDS011;67773;50.806;8.776;2023-04-19T01:20:43;12.82;;;8.32;;
78484;SDS011;67773;50.806;8.776;2023-04-19T01:23:08;13.80;;;8.40;;
78484;SDS011;67773;50.806;8.776;2023-04-19T01:25:35;15.23;;;9.65;;
78484;SDS011;67773;50.806;8.776;2023-04-19T01:28:01;13.20;;;8.57;;
78484;SDS011;67773;50.806;8.776;2023-04-19T01:30:27;14.35;;;9.88;;
78484;SDS011;67773;50.806;8.776;2023-04-19T01:32:52;16.23;;;9.70;;
78484;SDS011;67773;50.806;8.776;2023-04-19T01:35:17;15.17;;;9.40;;
78484;SDS011;67773;50.806;8.776;2023-04-19T01:37:42;14.57;;;9.30;;
78484;SDS011;67773;50.806;8.776;2023-04-19T01:40:08;15.90;;;8.67;;
78484;SDS011;67773;50.806;8.776;2023-04-19T01:42:33;17.02;;;10.02;;
78484;SDS011;67773;50.806;8.776;2023-04-19T01:44:59;15.85;;;9.32;;
78484;SDS011;67773;50.806;8.776;2023-04-19T01:47:24;14.43;;;8.32;;
78484;SDS011;67773;50.806;8.776;2023-04-19T01:49:50;16.03;;;9.03;;
78484;SDS011;67773;50.806;8.776;2023-04-19T01:52:15;14.93;;;9.70;;
78484;SDS011;67773;50.806;8.776;2023-04-19T01:54:40;16.13;;;9.43;;
78484;SDS011;67773;50.806;8.776;2023-04-19T01:57:06;13.77;;;9.77;;
78484;SDS011;67773;50.806;8.776;2023-04-19T01:59:31;19.83;;;10.03;;
78484;SDS011;67773;50.806;8.776;2023-04-19T02:01:56;17.27;;;9.63;;
78484;SDS011;67773;50.806;8.776;2023-04-19T02:04:21;14.90;;;9.70;;
78484;SDS011;67773;50.806;8.776;2023-04-19T02:06:47;14.50;;;9.50;;
78484;SDS011;67773;50.806;8.776;2023-04-19T02:09:12;16.40;;;10.10;;
78484;SDS011;67773;50.806;8.776;2023-04-19T02:11:37;16.13;;;9.60;;
78484;SDS011;67773;50.806;8.776;2023-04-19T02:14:03;17.20;;;9.35;;
78484;SDS011;67773;50.806;8.776;2023-04-19T02:16:28;20.38;;;10.65;;
78484;SDS011;67773;50.806;8.776;2023-04-19T02:18:53;15.77;;;8.93;;
78484;SDS011;67773;50.806;8.776;2023-04-19T02:21:19;16.87;;;9.73;;
78484;SDS011;67773;50.806;8.776;2023-04-19T02:23:44;14.52;;;9.85;;
78484;SDS011;67773;50.806;8.776;2023-04-19T02:26:09;17.37;;;8.97;;
78484;SDS011;67773;50.806;8.776;2023-04-19T02:28:35;14.25;;;8.38;;
78484;SDS011;67773;50.806;8.776;2023-04-19T02:31:05;14.07;;;9.02;;
78484;SDS011;67773;50.806;8.776;2023-04-19T02:33:31;16.92;;;9.52;;
78484;SDS011;67773;50.806;8.776;2023-04-19T02:35:56;16.80;;;9.77;;
78484;SDS011;67773;50.806;8.776;2023-04-19T02:38:21;16.90;;;9.67;;
78484;SDS011;67773;50.806;8.776;2023-04-19T02:40:47;14.80;;;9.93;;
78484;SDS011;67773;50.806;8.776;2023-04-19T02:43:12;14.63;;;9.32;;
78484;SDS011;67773;50.806;8.776;2023-04-19T02:45:37;14.43;;;9.03;;
78484;SDS011;67773;50.806;8.776;2023-04-19T02:48:03;14.20;;;9.77;;
78484;SDS011;67773;50.806;8.776;2023-04-19T02:50:28;17.45;;;10.10;;
78484;SDS011;67773;50.806;8.776;2023-04-19T02:52:54;15.70;;;9.73;;
78484;SDS011;67773;50.806;8.776;2023-04-19T02:55:19;14.80;;;9.13;;
78484;SDS011;67773;50.806;8.776;2023-04-19T02:57:44;17.13;;;9.85;;
78484;SDS011;67773;50.806;8.776;2023-04-19T03:00:10;16.52;;;10.68;;
78484;SDS011;67773;50.806;8.776;2023-04-19T03:02:36;14.85;;;9.23;;
78484;SDS011;67773;50.806;8.776;2023-04-19T03:05:01;15.48;;;9.93;;
78484;SDS011;67773;50.806;8.776;2023-04-19T03:07:28;15.23;;;8.85;;
78484;SDS011;67773;50.806;8.776;2023-04-19T03:09:53;14.90;;;8.88;;
78484;SDS011;67773;50.806;8.776;2023-04-19T03:12:18;14.13;;;9.30;;
78484;SDS011;67773;50.806;8.776;2023-04-19T03:14:44;14.13;;;9.37;;
78484;SDS011;67773;50.806;8.776;2023-04-19T03:17:09;13.52;;;8.55;;
78484;SDS011;67773;50.806;8.776;2023-04-19T03:19:34;13.40;;;8.80;;
78484;SDS011;67773;50.806;8.776;2023-04-19T03:22:00;14.30;;;8.80;;
78484;SDS011;67773;50.806;8.776;2023-04-19T03:24:28;13.60;;;8.90;;
78484;SDS011;67773;50.806;8.776;2023-04-19T03:26:54;14.60;;;9.45;;
78484;SDS011;67773;50.806;8.776;2023-04-19T03:29:20;13.45;;;7.80;;
78484;SDS011;67773;50.806;8.776;2023-04-19T03:31:46;15.60;;;8.93;;
78484;SDS011;67773;50.806;8.776;2023-04-19T03:34:11;14.25;;;9.55;;
78484;SDS011;67773;50.806;8.776;2023-04-19T03:36:37;12.73;;;8.57;;
78484;SDS011;67773;50.806;8.776;2023-04-19T03:39:03;12.55;;;7.93;;
78484;SDS011;67773;50.806;8.776;2023-04-19T03:41:28;13.05;;;8.23;;
78484;SDS011;67773;50.806;8.776;2023-04-19T03:43:53;11.93;;;7.37;;
78484;SDS011;67773;50.806;8.776;2023-04-19T03:46:19;10.68;;;7.68;;
78484;SDS011;67773;50.806;8.776;2023-04-19T03:48:45;13.35;;;7.60;;
78484;SDS011;67773;50.806;8.776;2023-04-19T03:51:10;13.60;;;7.22;;
78484;SDS011;67773;50.806;8.776;2023-04-19T03:53:37;12.60;;;7.85;;
78484;SDS011;67773;50.806;8.776;2023-04-19T03:56:02;11.77;;;6.80;;
78484;SDS011;67773;50.806;8.776;2023-04-19T03:58:28;12.05;;;7.38;;
78484;SDS011;67773;50.806;8.776;2023-04-19T04:00:53;10.57;;;6.60;;
78484;SDS011;67773;50.806;8.776;2023-04-19T04:03:18;11.63;;;7.30;;
78484;SDS011;67773;50.806;8.776;2023-04-19T04:05:44;10.17;;;7.03;;
78484;SDS011;67773;50.806;8.776;2023-04-19T04:08:09;10.32;;;6.32;;
78484;SDS011;67773;50.806;8.776;2023-04-19T04:10:35;9.63;;;6.72;;
78484;SDS011;67773;50.806;8.776;2023-04-19T04:13:00;13.33;;;7.13;;
78484;SDS011;67773;50.806;8.776;2023-04-19T04:15:25;11.63;;;6.53;;
78484;SDS011;67773;50.806;8.776;2023-04-19T04:17:51;8.60;;;5.90;;
78484;SDS011;67773;50.806;8.776;2023-04-19T04:20:16;10.23;;;5.90;;
78484;SDS011;67773;50.806;8.776;2023-04-19T04:22:42;8.60;;;6.05;;
78484;SDS011;67773;50.806;8.776;2023-04-19T04:25:08;11.73;;;6.47;;
78484;SDS011;67773;50.806;8.776;2023-04-19T04:27:34;8.57;;;5.95;;
78484;SDS011;67773;50.806;8.776;2023-04-19T04:30:01;8.00;;;5.40;;
78484;SDS011;67773;50.806;8.776;2023-04-19T04:32:26;8.17;;;5.07;;
78484;SDS011;67773;50.806;8.776;2023-04-19T04:34:52;10.07;;;6.20;;
78484;SDS011;67773;50.806;8.776;2023-04-19T04:37:17;7.80;;;5.17;;
78484;SDS011;67773;50.806;8.776;2023-04-19T04:39:42;8.73;;;5.73;;
78484;SDS011;67773;50.806;8.776;2023-04-19T04:42:08;9.68;;;5.63;;
78484;SDS011;67773;50.806;8.776;2023-04-19T04:44:34;8.00;;;4.78;;
78484;SDS011;67773;50.806;8.776;2023-04-19T04:47:03;9.27;;;5.20;;
78484;SDS011;67773;50.806;8.776;2023-04-19T04:49:28;9.82;;;5.18;;
78484;SDS011;67773;50.806;8.776;2023-04-19T04:51:54;7.57;;;4.85;;
78484;SDS011;67773;50.806;8.776;2023-04-19T04:54:19;8.32;;;4.65;;
78484;SDS011;67773;50.806;8.776;2023-04-19T04:56:45;7.32;;;4.90;;
78484;SDS011;67773;50.806;8.776;2023-04-19T04:59:10;6.17;;;4.07;;
78484;SDS011;67773;50.806;8.776;2023-04-19T05:01:35;8.13;;;4.37;;
78484;SDS011;67773;50.806;8.776;2023-04-19T05:04:01;7.30;;;4.13;;
78484;SDS011;67773;50.806;8.776;2023-04-19T05:06:26;6.67;;;4.17;;
78484;SDS011;67773;50.806;8.776;2023-04-19T05:08:51;6.43;;;3.70;;
78484;SDS011;67773;50.806;8.776;2023-04-19T05:11:17;6.33;;;3.80;;
78484;SDS011;67773;50.806;8.776;2023-04-19T05:13:42;12.63;;;5.30;;
78484;SDS011;67773;50.806;8.776;2023-04-19T05:16:07;6.63;;;3.67;;
78484;SDS011;67773;50.806;8.776;2023-04-19T05:18:33;7.73;;;3.60;;
78484;SDS011;67773;50.806;8.776;2023-04-19T05:20:58;6.03;;;3.50;;
78484;SDS011;67773;50.806;8.776;2023-04-19T05:23:23;5.90;;;3.72;;
78484;SDS011;67773;50.806;8.776;2023-04-19T05:25:49;5.70;;;3.45;;
78484;SDS011;67773;50.806;8.776;2023-04-19T05:28:14;5.23;;;3.37;;
78484;SDS011;67773;50.806;8.776;2023-04-19T05:30:39;6.03;;;4.10;;
78484;SDS011;67773;50.806;8.776;2023-04-19T05:33:05;7.57;;;3.83;;
78484;SDS011;67773;50.806;8.776;2023-04-19T05:35:30;6.93;;;3.37;;
78484;SDS011;67773;50.806;8.776;2023-04-19T05:37:55;5.53;;;3.25;;
78484;SDS011;67773;50.806;8.776;2023-04-19T05:40:21;5.13;;;3.10;;
78484;SDS011;67773;50.806;8.776;2023-04-19T05:42:48;5.82;;;3.90;;
78484;SDS011;67773;50.806;8.776;2023-04-19T05:45:14;5.45;;;3.70;;
78484;SDS011;67773;50.806;8.776;2023-04-19T05:47:40;9.48;;;4.85;;
78484;SDS011;67773;50.806;8.776;2023-04-19T05:50:06;6.78;;;3.75;;
78484;SDS011;67773;50.806;8.776;2023-04-19T05:52:32;8.55;;;4.50;;
78484;SDS011;67773;50.806;8.776;2023-04-19T05:54:57;7.25;;;4.03;;
78484;SDS011;67773;50.806;8.776;2023-04-19T05:57:23;6.25;;;3.45;;
78484;SDS011;67773;50.806;8.776;2023-04-19T05:59:49;6.55;;;3.83;;
78484;SDS011;67773;50.806;8.776;2023-04-19T06:02:15;7.93;;;4.13;;
78484;SDS011;67773;50.806;8.776;2023-04-19T06:04:40;6.77;;;3.83;;
78484;SDS011;67773;50.806;8.776;2023-04-19T06:07:06;6.57;;;4.27;;
78484;SDS011;67773;50.806;8.776;2023-04-19T06:09:31;8.07;;;4.38;;
78484;SDS011;67773;50.806;8.776;2023-04-19T06:11:57;8.52;;;5.00;;
78484;SDS011;67773;50.806;8.776;2023-04-19T06:14:22;6.30;;;3.57;;
78484;SDS011;67773;50.806;8.776;2023-04-19T06:16:48;13.43;;;6.00;;
78484;SDS011;67773;50.806;8.776;2023-04-19T06:19:13;10.00;;;5.63;;
78484;SDS011;67773;50.806;8.776;2023-04-19T06:21:39;6.05;;;3.60;;
78484;SDS011;67773;50.806;8.776;2023-04-19T06:24:05;6.30;;;3.65;;
78484;SDS011;67773;50.806;8.776;2023-04-19T06:26:31;6.05;;;4.63;;
78484;SDS011;67773;50.806;8.776;2023-04-19T06:28:56;5.60;;;3.45;;
78484;SDS011;67773;50.806;8.776;2023-04-19T06:31:22;6.53;;;4.17;;
78484;SDS011;67773;50.806;8.776;2023-04-19T06:33:47;8.32;;;5.00;;
78484;SDS011;67773;50.806;8.776;2023-04-19T06:36:12;6.90;;;3.67;;
78484;SDS011;67773;50.806;8.776;2023-04-19T06:38:38;4.90;;;3.63;;
78484;SDS011;67773;50.806;8.776;2023-04-19T06:41:04;6.57;;;3.53;;
78484;SDS011;67773;50.806;8.776;2023-04-19T06:43:29;5.00;;;3.47;;
78484;SDS011;67773;50.806;8.776;2023-04-19T06:46:01;5.13;;;3.97;;
78484;SDS011;67773;50.806;8.776;2023-04-19T06:48:28;5.85;;;3.70;;
78484;SDS011;67773;50.806;8.776;2023-04-19T06:50:54;7.80;;;4.03;;
78484;SDS011;67773;50.806;8.776;2023-04-19T06:53:20;5.68;;;3.35;;
78484;SDS011;67773;50.806;8.776;2023-04-19T06:55:46;5.63;;;3.63;;
78484;SDS011;67773;50.806;8.776;2023-04-19T06:58:11;5.27;;;3.27;;
78484;SDS011;67773;50.806;8.776;2023-04-19T07:00:37;5.70;;;4.07;;
78484;SDS011;67773;50.806;8.776;2023-04-19T07:03:02;5.47;;;3.90;;
78484;SDS011;67773;50.806;8.776;2023-04-19T07:05:28;6.07;;;3.67;;
78484;SDS011;67773;50.806;8.776;2023-04-19T07:07:55;5.38;;;3.28;;
78484;SDS011;67773;50.806;8.776;2023-04-19T07:10:20;6.93;;;3.80;;
78484;SDS011;67773;50.806;8.776;2023-04-19T07:12:46;8.20;;;4.03;;
78484;SDS011;67773;50.806;8.776;2023-04-19T07:15:11;6.47;;;3.75;;
78484;SDS011;67773;50.806;8.776;2023-04-19T07:17:37;6.13;;;4.13;;
78484;SDS011;67773;50.806;8.776;2023-04-19T07:20:03;9.10;;;5.47;;
78484;SDS011;67773;50.806;8.776;2023-04-19T07:22:30;7.43;;;4.78;;
78484;SDS011;67773;50.806;8.776;2023-04-19T07:24:56;7.43;;;3.83;;
78484;SDS011;67773;50.806;8.776;2023-04-19T07:27:21;6.87;;;3.67;;
78484;SDS011;67773;50.806;8.776;2023-04-19T07:29:46;7.37;;;4.33;;
78484;SDS011;67773;50.806;8.776;2023-04-19T07:32:12;6.03;;;3.80;;
78484;SDS011;67773;50.806;8.776;2023-04-19T07:34:40;7.05;;;4.32;;
78484;SDS011;67773;50.806;8.776;2023-04-19T07:37:06;5.68;;;3.67;;
78484;SDS011;67773;50.806;8.776;2023-04-19T07:39:32;5.72;;;3.88;;
78484;SDS011;67773;50.806;8.776;2023-04-19T07:41:57;7.47;;;4.25;;
78484;SDS011;67773;50.806;8.776;2023-04-19T07:44:22;7.20;;;4.10;;
78484;SDS011;67773;50.806;8.776;2023-04-19T07:46:48;6.38;;;3.50;;
78484;SDS011;67773;50.806;8.776;2023-04-19T07:49:14;6.40;;;3.13;;
78484;SDS011;67773;50.806;8.776;2023-04-19T07:51:39;6.25;;;4.75;;
78484;SDS011;67773;50.806;8.776;2023-04-19T07:54:04;6.70;;;3.87;;
78484;SDS011;67773;50.806;8.776;2023-04-19T07:56:30;6.35;;;3.58;;
78484;SDS011;67773;50.806;8.776;2023-04-19T07:58:57;6.85;;;3.28;;
78484;SDS011;67773;50.806;8.776;2023-04-19T08:01:23;5.22;;;3.35;;
78484;SDS011;67773;50.806;8.776;2023-04-19T08:03:49;5.45;;;3.50;;
78484;SDS011;67773;50.806;8.776;2023-04-19T08:06:14;5.07;;;3.53;;
78484;SDS011;67773;50.806;8.776;2023-04-19T08:08:39;7.27;;;3.27;;
78484;SDS011;67773;50.806;8.776;2023-04-19T08:11:05;4.70;;;3.22;;
78484;SDS011;67773;50.806;8.776;2023-04-19T08:13:30;5.18;;;3.63;;
78484;SDS011;67773;50.806;8.776;2023-04-19T08:15:56;6.27;;;3.60;;
78484;SDS011;67773;50.806;8.776;2023-04-19T08:18:21;8.23;;;3.97;;
78484;SDS011;67773;50.806;8.776;2023-04-19T08:20:46;6.95;;;3.47;;
78484;SDS011;67773;50.806;8.776;2023-04-19T08:23:12;8.05;;;3.38;;
78484;SDS011;67773;50.806;8.776;2023-04-19T08:25:38;5.68;;;3.35;;
78484;SDS011;67773;50.806;8.776;2023-04-19T08:28:03;5.20;;;2.77;;
78484;SDS011;67773;50.806;8.776;2023-04-19T08:30:29;5.07;;;2.83;;
78484;SDS011;67773;50.806;8.776;2023-04-19T08:32:55;5.22;;;2.97;;
78484;SDS011;67773;50.806;8.776;2023-04-19T08:35:20;7.87;;;2.93;;
78484;SDS011;67773;50.806;8.776;2023-04-19T08:37:46;3.28;;;2.60;;
78484;SDS011;67773;50.806;8.776;2023-04-19T08:40:12;5.38;;;2.70;;
78484;SDS011;67773;50.806;8.776;2023-04-19T08:42:38;4.80;;;2.65;;
78484;SDS011;67773;50.806;8.776;2023-04-19T08:45:04;4.60;;;3.03;;
78484;SDS011;67773;50.806;8.776;2023-04-19T08:47:34;5.43;;;2.63;;
78484;SDS011;67773;50.806;8.776;2023-04-19T08:50:03;5.25;;;3.03;;
78484;SDS011;67773;50.806;8.776;2023-04-19T08:52:33;5.82;;;3.33;;
78484;SDS011;67773;50.806;8.776;2023-04-19T08:55:03;5.55;;;3.35;;
78484;SDS011;67773;50.806;8.776;2023-04-19T08:57:31;4.20;;;2.53;;
78484;SDS011;67773;50.806;8.776;2023-04-19T08:59:57;4.50;;;3.08;;
78484;SDS011;67773;50.806;8.776;2023-04-19T09:02:23;6.03;;;3.65;;
78484;SDS011;67773;50.806;8.776;2023-04-19T09:04:49;5.00;;;2.72;;
78484;SDS011;67773;50.806;8.776;2023-04-19T09:07:24;5.10;;;2.85;;
78484;SDS011;67773;50.806;8.776;2023-04-19T09:10:03;4.47;;;2.63;;
78484;SDS011;67773;50.806;8.776;2023-04-19T09:12:30;7.45;;;3.13;;
78484;SDS011;67773;50.806;8.776;2023-04-19T09:14:55;3.78;;;2.90;;
78484;SDS011;67773;50.806;8.776;2023-04-19T09:17:21;3.45;;;2.30;;
78484;SDS011;67773;50.806;8.776;2023-04-19T09:19:47;3.70;;;2.53;;
78484;SDS011;67773;50.806;8.776;2023-04-19T09:22:13;3.60;;;2.10;;
78484;SDS011;67773;50.806;8.776;2023-04-19T09:24:39;4.45;;;2.40;;
78484;SDS011;67773;50.806;8.776;2023-04-19T09:27:04;4.35;;;2.80;;
78484;SDS011;67773;50.806;8.776;2023-04-19T09:29:30;7.30;;;3.53;;
78484;SDS011;67773;50.806;8.776;2023-04-19T09:31:56;4.85;;;2.30;;
78484;SDS011;67773;50.806;8.776;2023-04-19T09:34:23;3.47;;;2.38;;
78484;SDS011;67773;50.806;8.776;2023-04-19T09:36:48;2.80;;;2.00;;
78484;SDS011;67773;50.806;8.776;2023-04-19T09:39:26;3.70;;;2.10;;
78484;SDS011;67773;50.806;8.776;2023-04-19T09:41:53;3.50;;;2.38;;
78484;SDS011;67773;50.806;8.776;2023-04-19T09:44:19;3.55;;;2.40;;
78484;SDS011;67773;50.806;8.776;2023-04-19T09:46:45;3.33;;;2.08;;
78484;SDS011;67773;50.806;8.776;2023-04-19T09:51:40;4.25;;;2.38;;
78484;SDS011;67773;50.806;8.776;2023-04-19T09:54:09;4.00;;;2.30;;
78484;SDS011;67773;50.806;8.776;2023-04-19T09:56:35;8.80;;;3.33;;
78484;SDS011;67773;50.806;8.776;2023-04-19T09:59:01;4.22;;;2.85;;
78484;SDS011;67773;50.806;8.776;2023-04-19T10:01:27;33.97;;;4.80;;
78484;SDS011;67773;50.806;8.776;2023-04-19T10:03:54;8.13;;;5.90;;
78484;SDS011;67773;50.806;8.776;2023-04-19T10:06:21;5.88;;;2.80;;
78484;SDS011;67773;50.806;8.776;2023-04-19T10:08:48;6.78;;;4.30;;
78484;SDS011;67773;50.806;8.776;2023-04-19T10:11:14;4.35;;;2.42;;
78484;SDS011;67773;50.806;8.776;2023-04-19T10:13:40;4.35;;;2.38;;
78484;SDS011;67773;50.806;8.776;2023-04-19T10:16:07;4.70;;;2.63;;
78484;SDS011;67773;50.806;8.776;2023-04-19T10:18:32;4.38;;;2.85;;
78484;SDS011;67773;50.806;8.776;2023-04-19T10:20:58;5.70;;;2.72;;
78484;SDS011;67773;50.806;8.776;2023-04-19T10:23:27;4.35;;;2.67;;
78484;SDS011;67773;50.806;8.776;2023-04-19T10:25:55;2.55;;;1.70;;
78484;SDS011;67773;50.806;8.776;2023-04-19T10:28:21;3.20;;;1.70;;
78484;SDS011;67773;50.806;8.776;2023-04-19T10:30:52;2.75;;;1.67;;
78484;SDS011;67773;50.806;8.776;2023-04-19T10:33:26;3.08;;;1.58;;
78484;SDS011;67773;50.806;8.776;2023-04-19T10:35:55;2.85;;;1.90;;
78484;SDS011;67773;50.806;8.776;2023-04-19T10:38:35;2.35;;;1.92;;
78484;SDS011;67773;50.806;8.776;2023-04-19T10:41:00;3.13;;;1.85;;
78484;SDS011;67773;50.806;8.776;2023-04-19T10:43:31;2.85;;;1.95;;
78484;SDS011;67773;50.806;8.776;2023-04-19T10:46:07;3.80;;;2.22;;
78484;SDS011;67773;50.806;8.776;2023-04-19T10:48:38;2.65;;;2.13;;
78484;SDS011;67773;50.806;8.776;2023-04-19T10:51:14;2.58;;;2.00;;
78484;SDS011;67773;50.806;8.776;2023-04-19T10:53:43;2.92;;;1.50;;
78484;SDS011;67773;50.806;8.776;2023-04-19T10:56:21;2.92;;;1.80;;
78484;SDS011;67773;50.806;8.776;2023-04-19T10:59:10;2.55;;;1.55;;
78484;SDS011;67773;50.806;8.776;2023-04-19T11:01:43;2.95;;;1.30;;
78484;SDS011;67773;50.806;8.776;2023-04-19T11:11:48;2.72;;;1.58;;
78484;SDS011;67773;50.806;8.776;2023-04-19T11:14:13;3.05;;;1.50;;
78484;SDS011;67773;50.806;8.776;2023-04-19T11:16:40;2.63;;;1.60;;
78484;SDS011;67773;50.806;8.776;2023-04-19T11:19:06;3.10;;;1.58;;
78484;SDS011;67773;50.806;8.776;2023-04-19T11:21:31;1.97;;;1.40;;
78484;SDS011;67773;50.806;8.776;2023-04-19T11:24:07;2.85;;;1.60;;
78484;SDS011;67773;50.806;8.776;2023-04-19T11:26:35;2.28;;;1.55;;
78484;SDS011;67773;50.806;8.776;2023-04-19T11:29:00;3.35;;;1.58;;
78484;SDS011;67773;50.806;8.776;2023-04-19T11:31:26;2.60;;;1.50;;
78484;SDS011;67773;50.806;8.776;2023-04-19T11:33:52;3.40;;;1.63;;
78484;SDS011;67773;50.806;8.776;2023-04-19T11:36:18;2.65;;;1.42;;
78484;SDS011;67773;50.806;8.776;2023-04-19T11:38:47;3.58;;;1.40;;
78484;SDS011;67773;50.806;8.776;2023-04-19T11:41:12;3.13;;;1.30;;
78484;SDS011;67773;50.806;8.776;2023-04-19T11:43:38;2.78;;;1.75;;
78484;SDS011;67773;50.806;8.776;2023-04-19T11:48:34;3.80;;;1.48;;
78484;SDS011;67773;50.806;8.776;2023-04-19T11:51:00;2.22;;;1.35;;
78484;SDS011;67773;50.806;8.776;2023-04-19T11:53:26;4.28;;;1.60;;
78484;SDS011;67773;50.806;8.776;2023-04-19T11:58:26;9.57;;;5.35;;
78484;SDS011;67773;50.806;8.776;2023-04-19T12:01:04;2.05;;;1.50;;
78484;SDS011;67773;50.806;8.776;2023-04-19T12:03:30;3.60;;;1.77;;
78484;SDS011;67773;50.806;8.776;2023-04-19T12:05:58;4.40;;;2.25;;
78484;SDS011;67773;50.806;8.776;2023-04-19T12:11:02;2.22;;;1.38;;
78484;SDS011;67773;50.806;8.776;2023-04-19T12:13:29;4.65;;;1.60;;
78484;SDS011;67773;50.806;8.776;2023-04-19T12:15:55;2.15;;;1.38;;
78484;SDS011;67773;50.806;8.776;2023-04-19T12:18:21;2.22;;;1.42;;
78484;SDS011;67773;50.806;8.776;2023-04-19T12:20:47;2.50;;;1.40;;
78484;SDS011;67773;50.806;8.776;2023-04-19T12:23:15;1.90;;;1.50;;
78484;SDS011;67773;50.806;8.776;2023-04-19T12:25:42;3.03;;;1.80;;
78484;SDS011;67773;50.806;8.776;2023-04-19T12:28:08;2.40;;;1.80;;
78484;SDS011;67773;50.806;8.776;2023-04-19T12:30:34;2.80;;;1.70;;
78484;SDS011;67773;50.806;8.776;2023-04-19T12:33:00;2.60;;;1.70;;
78484;SDS011;67773;50.806;8.776;2023-04-19T12:35:26;2.63;;;1.60;;
78484;SDS011;67773;50.806;8.776;2023-04-19T12:37:55;3.10;;;1.60;;
78484;SDS011;67773;50.806;8.776;2023-04-19T12:40:23;3.25;;;1.75;;
78484;SDS011;67773;50.806;8.776;2023-04-19T12:42:49;1.90;;;1.50;;
78484;SDS011;67773;50.806;8.776;2023-04-19T12:45:16;2.22;;;1.70;;
78484;SDS011;67773;50.806;8.776;2023-04-19T12:47:42;2.90;;;1.90;;
78484;SDS011;67773;50.806;8.776;2023-04-19T12:50:08;2.65;;;1.63;;
78484;SDS011;67773;50.806;8.776;2023-04-19T12:52:34;2.97;;;1.70;;
78484;SDS011;67773;50.806;8.776;2023-04-19T12:55:00;2.75;;;1.67;;
78484;SDS011;67773;50.806;8.776;2023-04-19T12:57:25;2.35;;;1.70;;
78484;SDS011;67773;50.806;8.776;2023-04-19T12:59:51;2.17;;;1.40;;
78484;SDS011;67773;50.806;8.776;2023-04-19T13:02:16;3.13;;;1.70;;
78484;SDS011;67773;50.806;8.776;2023-04-19T13:04:41;2.53;;;1.88;;
78484;SDS011;67773;50.806;8.776;2023-04-19T13:07:07;5.43;;;4.00;;
78484;SDS011;67773;50.806;8.776;2023-04-19T13:09:32;3.95;;;1.95;;
78484;SDS011;67773;50.806;8.776;2023-04-19T13:11:57;1.90;;;1.50;;
78484;SDS011;67773;50.806;8.776;2023-04-19T13:14:24;3.00;;;1.50;;
78484;SDS011;67773;50.806;8.776;2023-04-19T13:16:50;3.80;;;1.60;;
78484;SDS011;67773;50.806;8.776;2023-04-19T13:19:16;2.43;;;1.67;;
78484;SDS011;67773;50.806;8.776;2023-04-19T13:21:41;3.87;;;1.50;;
78484;SDS011;67773;50.806;8.776;2023-04-19T13:24:07;2.33;;;1.60;;
78484;SDS011;67773;50.806;8.776;2023-04-19T13:26:32;2.97;;;1.70;;
78484;SDS011;67773;50.806;8.776;2023-04-19T13:28:58;4.32;;;1.92;;
78484;SDS011;67773;50.806;8.776;2023-04-19T13:31:23;3.38;;;2.30;;
78484;SDS011;67773;50.806;8.776;2023-04-19T13:33:49;2.65;;;1.45;;
78484;SDS011;67773;50.806;8.776;2023-04-19T13:36:14;2.20;;;1.50;;
78484;SDS011;67773;50.806;8.776;2023-04-19T13:38:40;3.70;;;1.57;;
78484;SDS011;67773;50.806;8.776;2023-04-19T13:41:05;2.80;;;1.90;;
78484;SDS011;67773;50.806;8.776;2023-04-19T13:43:30;4.80;;;1.60;;
78484;SDS011;67773;50.806;8.776;2023-04-19T13:45:56;5.73;;;1.73;;
78484;SDS011;67773;50.806;8.776;2023-04-19T13:48:21;3.50;;;1.60;;
78484;SDS011;67773;50.806;8.776;2023-04-19T13:50:46;2.20;;;1.50;;
78484;SDS011;67773;50.806;8.776;2023-04-19T13:53:12;2.73;;;1.57;;
78484;SDS011;67773;50.806;8.776;2023-04-19T13:55:37;2.43;;;1.63;;
78484;SDS011;67773;50.806;8.776;2023-04-19T13:58:02;2.88;;;1.95;;
78484;SDS011;67773;50.806;8.776;2023-04-19T14:00:28;3.60;;;1.50;;
78484;SDS011;67773;50.806;8.776;2023-04-19T14:02:53;3.05;;;1.73;;
78484;SDS011;67773;50.806;8.776;2023-04-19T14:05:20;3.83;;;2.10;;
78484;SDS011;67773;50.806;8.776;2023-04-19T14:07:45;2.90;;;2.10;;
78484;SDS011;67773;50.806;8.776;2023-04-19T14:10:11;2.67;;;1.83;;
78484;SDS011;67773;50.806;8.776;2023-04-19T14:12:36;2.67;;;1.80;;
78484;SDS011;67773;50.806;8.776;2023-04-19T14:15:01;3.40;;;2.00;;
78484;SDS011;67773;50.806;8.776;2023-04-19T14:17:27;4.75;;;1.98;;
78484;SDS011;67773;50.806;8.776;2023-04-19T14:19:54;3.07;;;1.67;;
78484;SDS011;67773;50.806;8.776;2023-04-19T14:22:20;3.70;;;1.90;;
78484;SDS011;67773;50.806;8.776;2023-04-19T14:24:45;3.60;;;1.80;;
78484;SDS011;67773;50.806;8.776;2023-04-19T14:27:11;2.70;;;2.23;;
78484;SDS011;67773;50.806;8.776;2023-04-19T14:29:36;4.77;;;2.13;;
78484;SDS011;67773;50.806;8.776;2023-04-19T14:32:01;2.63;;;1.77;;
78484;SDS011;67773;50.806;8.776;2023-04-19T14:34:27;5.82;;;2.45;;
78484;SDS011;67773;50.806;8.776;2023-04-19T14:36:52;3.03;;;2.43;;
78484;SDS011;67773;50.806;8.776;2023-04-19T14:39:17;4.37;;;2.30;;
78484;SDS011;67773;50.806;8.776;2023-04-19T14:41:43;2.50;;;2.10;;
78484;SDS011;67773;50.806;8.776;2023-04-19T14:44:08;4.23;;;2.60;;
78484;SDS011;67773;50.806;8.776;2023-04-19T14:46:33;4.23;;;2.70;;
78484;SDS011;67773;50.806;8.776;2023-04-19T14:48:59;6.07;;;2.43;;
78484;SDS011;67773;50.806;8.776;2023-04-19T14:51:27;4.20;;;2.63;;
78484;SDS011;67773;50.806;8.776;2023-04-19T14:53:53;4.15;;;2.83;;